sensor_id;sensor_type;location;lat;lon;timestamp;P1;durP1;ratioP1;P2;durP2;ratioP2
69310;SDS011;56430;48.154;16.458;2023-03-01T00:00:09;23.40;;;8.52;;
69310;SDS011;56430;48.154;16.458;2023-03-01T00:02:36;22.80;;;8.10;;
69310;SDS011;56430;48.154;16.458;2023-03-01T00:05:03;26.05;;;9.13;;
69310;SDS011;56430;48.154;16.458;2023-03-01T00:07:31;21.38;;;8.80;;
69310;SDS011;56430;48.154;16.458;2023-03-01T00:09:57;24.20;;;8.75;;
69310;SDS011;56430;48.154;16.458;2023-03-01T00:12:26;23.50;;;7.93;;
69310;SDS011;56430;48.154;16.458;2023-03-01T00:14:53;22.47;;;7.90;;
69310;SDS011;56430;48.154;16.458;2023-03-01T00:17:20;25.38;;;9.15;;
69310;SDS011;56430;48.154;16.458;2023-03-01T00:19:46;24.85;;;8.65;;
69310;SDS011;56430;48.154;16.458;2023-03-01T00:22:13;23.90;;;8.88;;
69310;SDS011;56430;48.154;16.458;2023-03-01T00:24:40;25.73;;;8.85;;
69310;SDS011;56430;48.154;16.458;2023-03-01T00:27:07;29.03;;;9.67;;
69310;SDS011;56430;48.154;16.458;2023-03-01T00:29:35;25.50;;;9.23;;
69310;SDS011;56430;48.154;16.458;2023-03-01T00:32:02;21.13;;;8.77;;
69310;SDS011;56430;48.154;16.458;2023-03-01T00:34:29;20.73;;;8.27;;
69310;SDS011;56430;48.154;16.458;2023-03-01T00:36:56;21.83;;;8.23;;
69310;SDS011;56430;48.154;16.458;2023-03-01T00:39:30;24.63;;;8.27;;
69310;SDS011;56430;48.154;16.458;2023-03-01T00:41:57;24.80;;;9.27;;
69310;SDS011;56430;48.154;16.458;2023-03-01T00:44:24;27.67;;;8.90;;
69310;SDS011;56430;48.154;16.458;2023-03-01T00:46:52;23.48;;;9.35;;
69310;SDS011;56430;48.154;16.458;2023-03-01T00:49:19;27.83;;;9.80;;
69310;SDS011;56430;48.154;16.458;2023-03-01T00:51:46;28.53;;;10.10;;
69310;SDS011;56430;48.154;16.458;2023-03-01T00:54:13;28.38;;;9.32;;
69310;SDS011;56430;48.154;16.458;2023-03-01T00:56:40;20.93;;;8.80;;
69310;SDS011;56430;48.154;16.458;2023-03-01T00:59:07;25.10;;;8.57;;
69310;SDS011;56430;48.154;16.458;2023-03-01T01:01:34;20.85;;;8.80;;
69310;SDS011;56430;48.154;16.458;2023-03-01T01:04:02;22.35;;;9.02;;
69310;SDS011;56430;48.154;16.458;2023-03-01T01:06:31;27.95;;;9.65;;
69310;SDS011;56430;48.154;16.458;2023-03-01T01:11:50;23.95;;;8.50;;
69310;SDS011;56430;48.154;16.458;2023-03-01T01:14:17;26.02;;;9.23;;
69310;SDS011;56430;48.154;16.458;2023-03-01T01:16:44;24.13;;;8.50;;
69310;SDS011;56430;48.154;16.458;2023-03-01T01:19:13;26.05;;;9.00;;
69310;SDS011;56430;48.154;16.458;2023-03-01T01:21:40;21.70;;;8.50;;
69310;SDS011;56430;48.154;16.458;2023-03-01T01:24:08;23.52;;;8.77;;
69310;SDS011;56430;48.154;16.458;2023-03-01T01:26:35;28.83;;;9.95;;
69310;SDS011;56430;48.154;16.458;2023-03-01T01:29:03;27.35;;;8.77;;
69310;SDS011;56430;48.154;16.458;2023-03-01T01:31:30;26.52;;;8.60;;
69310;SDS011;56430;48.154;16.458;2023-03-01T01:33:58;26.43;;;9.33;;
69310;SDS011;56430;48.154;16.458;2023-03-01T01:36:26;24.65;;;9.25;;
69310;SDS011;56430;48.154;16.458;2023-03-01T01:38:53;24.20;;;9.20;;
69310;SDS011;56430;48.154;16.458;2023-03-01T01:41:20;22.38;;;8.93;;
69310;SDS011;56430;48.154;16.458;2023-03-01T01:43:48;22.65;;;9.00;;
69310;SDS011;56430;48.154;16.458;2023-03-01T01:46:18;27.87;;;9.67;;
69310;SDS011;56430;48.154;16.458;2023-03-01T01:48:49;24.70;;;9.30;;
69310;SDS011;56430;48.154;16.458;2023-03-01T01:51:18;29.58;;;9.70;;
69310;SDS011;56430;48.154;16.458;2023-03-01T01:53:48;28.88;;;10.88;;
69310;SDS011;56430;48.154;16.458;2023-03-01T01:56:16;27.40;;;9.57;;
69310;SDS011;56430;48.154;16.458;2023-03-01T01:58:44;28.87;;;10.27;;
69310;SDS011;56430;48.154;16.458;2023-03-01T02:01:11;24.13;;;9.32;;
69310;SDS011;56430;48.154;16.458;2023-03-01T02:03:38;30.38;;;10.95;;
69310;SDS011;56430;48.154;16.458;2023-03-01T02:06:11;36.22;;;12.40;;
69310;SDS011;56430;48.154;16.458;2023-03-01T02:08:39;30.65;;;11.10;;
69310;SDS011;56430;48.154;16.458;2023-03-01T02:11:09;37.73;;;10.10;;
69310;SDS011;56430;48.154;16.458;2023-03-01T02:13:36;27.48;;;10.10;;
69310;SDS011;56430;48.154;16.458;2023-03-01T02:16:04;26.80;;;11.85;;
69310;SDS011;56430;48.154;16.458;2023-03-01T02:18:31;26.27;;;10.18;;
69310;SDS011;56430;48.154;16.458;2023-03-01T02:21:04;30.05;;;11.40;;
69310;SDS011;56430;48.154;16.458;2023-03-01T02:23:33;30.93;;;10.40;;
69310;SDS011;56430;48.154;16.458;2023-03-01T02:26:02;28.48;;;10.85;;
69310;SDS011;56430;48.154;16.458;2023-03-01T02:28:34;27.02;;;10.68;;
69310;SDS011;56430;48.154;16.458;2023-03-01T02:31:02;35.28;;;11.45;;
69310;SDS011;56430;48.154;16.458;2023-03-01T02:33:47;25.77;;;10.68;;
69310;SDS011;56430;48.154;16.458;2023-03-01T02:36:15;29.70;;;10.80;;
69310;SDS011;56430;48.154;16.458;2023-03-01T02:38:44;31.05;;;11.55;;
69310;SDS011;56430;48.154;16.458;2023-03-01T02:41:11;31.75;;;11.30;;
69310;SDS011;56430;48.154;16.458;2023-03-01T02:43:41;28.50;;;10.80;;
69310;SDS011;56430;48.154;16.458;2023-03-01T02:46:12;32.40;;;10.82;;
69310;SDS011;56430;48.154;16.458;2023-03-01T02:48:40;33.67;;;11.00;;
69310;SDS011;56430;48.154;16.458;2023-03-01T02:51:11;29.02;;;11.32;;
69310;SDS011;56430;48.154;16.458;2023-03-01T02:53:41;29.92;;;10.88;;
69310;SDS011;56430;48.154;16.458;2023-03-01T02:56:11;28.38;;;10.32;;
69310;SDS011;56430;48.154;16.458;2023-03-01T02:58:41;31.60;;;11.10;;
69310;SDS011;56430;48.154;16.458;2023-03-01T03:01:11;31.17;;;11.37;;
69310;SDS011;56430;48.154;16.458;2023-03-01T03:03:39;34.80;;;12.43;;
69310;SDS011;56430;48.154;16.458;2023-03-01T03:06:06;29.30;;;11.68;;
69310;SDS011;56430;48.154;16.458;2023-03-01T03:08:33;27.88;;;11.73;;
69310;SDS011;56430;48.154;16.458;2023-03-01T03:10:59;28.92;;;11.07;;
69310;SDS011;56430;48.154;16.458;2023-03-01T03:13:26;28.13;;;11.40;;
69310;SDS011;56430;48.154;16.458;2023-03-01T03:15:55;34.28;;;11.82;;
69310;SDS011;56430;48.154;16.458;2023-03-01T03:18:22;31.60;;;10.95;;
69310;SDS011;56430;48.154;16.458;2023-03-01T03:20:51;30.08;;;12.02;;
69310;SDS011;56430;48.154;16.458;2023-03-01T03:23:18;33.25;;;11.95;;
69310;SDS011;56430;48.154;16.458;2023-03-01T03:25:47;31.43;;;12.03;;
69310;SDS011;56430;48.154;16.458;2023-03-01T03:28:14;31.15;;;11.13;;
69310;SDS011;56430;48.154;16.458;2023-03-01T03:30:41;33.38;;;11.13;;
69310;SDS011;56430;48.154;16.458;2023-03-01T03:33:10;34.63;;;10.93;;
69310;SDS011;56430;48.154;16.458;2023-03-01T03:35:39;27.73;;;10.82;;
69310;SDS011;56430;48.154;16.458;2023-03-01T03:38:07;22.83;;;9.63;;
69310;SDS011;56430;48.154;16.458;2023-03-01T03:40:42;25.55;;;11.23;;
69310;SDS011;56430;48.154;16.458;2023-03-01T03:43:09;33.95;;;12.13;;
69310;SDS011;56430;48.154;16.458;2023-03-01T03:45:37;29.08;;;11.55;;
69310;SDS011;56430;48.154;16.458;2023-03-01T03:48:05;29.70;;;11.27;;
69310;SDS011;56430;48.154;16.458;2023-03-01T03:50:33;27.70;;;10.90;;
69310;SDS011;56430;48.154;16.458;2023-03-01T03:53:00;33.20;;;12.27;;
69310;SDS011;56430;48.154;16.458;2023-03-01T03:55:27;30.77;;;12.07;;
69310;SDS011;56430;48.154;16.458;2023-03-01T03:57:56;31.15;;;11.52;;
69310;SDS011;56430;48.154;16.458;2023-03-01T04:00:23;28.13;;;11.13;;
69310;SDS011;56430;48.154;16.458;2023-03-01T04:02:50;28.10;;;11.53;;
69310;SDS011;56430;48.154;16.458;2023-03-01T04:05:22;27.17;;;10.57;;
69310;SDS011;56430;48.154;16.458;2023-03-01T04:07:50;31.15;;;11.40;;
69310;SDS011;56430;48.154;16.458;2023-03-01T04:10:26;31.13;;;10.75;;
69310;SDS011;56430;48.154;16.458;2023-03-01T04:12:53;29.13;;;12.07;;
69310;SDS011;56430;48.154;16.458;2023-03-01T04:15:21;30.03;;;11.73;;
69310;SDS011;56430;48.154;16.458;2023-03-01T04:17:50;32.45;;;12.30;;
69310;SDS011;56430;48.154;16.458;2023-03-01T04:20:18;34.65;;;12.18;;
69310;SDS011;56430;48.154;16.458;2023-03-01T04:22:52;30.15;;;11.20;;
69310;SDS011;56430;48.154;16.458;2023-03-01T04:25:23;28.20;;;11.43;;
69310;SDS011;56430;48.154;16.458;2023-03-01T04:27:50;29.33;;;11.47;;
69310;SDS011;56430;48.154;16.458;2023-03-01T04:30:17;37.03;;;12.40;;
69310;SDS011;56430;48.154;16.458;2023-03-01T04:32:44;31.02;;;11.52;;
69310;SDS011;56430;48.154;16.458;2023-03-01T04:35:11;31.83;;;11.90;;
69310;SDS011;56430;48.154;16.458;2023-03-01T04:37:38;27.67;;;11.20;;
69310;SDS011;56430;48.154;16.458;2023-03-01T04:40:09;29.73;;;11.30;;
69310;SDS011;56430;48.154;16.458;2023-03-01T04:42:41;34.05;;;13.18;;
69310;SDS011;56430;48.154;16.458;2023-03-01T04:45:09;32.30;;;11.52;;
69310;SDS011;56430;48.154;16.458;2023-03-01T04:47:38;32.00;;;12.20;;
69310;SDS011;56430;48.154;16.458;2023-03-01T04:50:06;30.70;;;11.63;;
69310;SDS011;56430;48.154;16.458;2023-03-01T04:52:33;33.20;;;12.23;;
69310;SDS011;56430;48.154;16.458;2023-03-01T04:55:00;33.15;;;12.40;;
69310;SDS011;56430;48.154;16.458;2023-03-01T04:57:28;33.40;;;12.40;;
69310;SDS011;56430;48.154;16.458;2023-03-01T04:59:55;29.38;;;12.35;;
69310;SDS011;56430;48.154;16.458;2023-03-01T05:02:22;32.38;;;12.82;;
69310;SDS011;56430;48.154;16.458;2023-03-01T05:04:48;33.33;;;11.83;;
69310;SDS011;56430;48.154;16.458;2023-03-01T05:07:15;34.00;;;12.20;;
69310;SDS011;56430;48.154;16.458;2023-03-01T05:09:44;32.40;;;12.15;;
69310;SDS011;56430;48.154;16.458;2023-03-01T05:12:11;31.83;;;11.93;;
69310;SDS011;56430;48.154;16.458;2023-03-01T05:14:40;31.05;;;11.80;;
69310;SDS011;56430;48.154;16.458;2023-03-01T05:17:07;34.77;;;12.37;;
69310;SDS011;56430;48.154;16.458;2023-03-01T05:19:34;33.60;;;11.73;;
69310;SDS011;56430;48.154;16.458;2023-03-01T05:22:01;33.40;;;12.18;;
69310;SDS011;56430;48.154;16.458;2023-03-01T05:24:29;32.92;;;12.00;;
69310;SDS011;56430;48.154;16.458;2023-03-01T05:26:57;32.08;;;12.15;;
69310;SDS011;56430;48.154;16.458;2023-03-01T05:29:24;32.20;;;11.17;;
69310;SDS011;56430;48.154;16.458;2023-03-01T05:31:53;31.33;;;11.80;;
69310;SDS011;56430;48.154;16.458;2023-03-01T05:34:22;30.95;;;12.20;;
69310;SDS011;56430;48.154;16.458;2023-03-01T05:36:50;27.65;;;10.90;;
69310;SDS011;56430;48.154;16.458;2023-03-01T05:39:19;32.17;;;11.95;;
69310;SDS011;56430;48.154;16.458;2023-03-01T05:41:46;36.47;;;12.17;;
69310;SDS011;56430;48.154;16.458;2023-03-01T05:44:13;37.25;;;11.15;;
69310;SDS011;56430;48.154;16.458;2023-03-01T05:46:41;28.88;;;10.93;;
69310;SDS011;56430;48.154;16.458;2023-03-01T05:49:09;36.92;;;12.88;;
69310;SDS011;56430;48.154;16.458;2023-03-01T05:51:36;36.05;;;13.02;;
69310;SDS011;56430;48.154;16.458;2023-03-01T05:54:03;34.60;;;12.20;;
69310;SDS011;56430;48.154;16.458;2023-03-01T05:56:32;35.78;;;12.88;;
69310;SDS011;56430;48.154;16.458;2023-03-01T05:58:59;28.98;;;11.93;;
69310;SDS011;56430;48.154;16.458;2023-03-01T06:01:26;35.72;;;12.30;;
69310;SDS011;56430;48.154;16.458;2023-03-01T06:03:53;34.85;;;12.50;;
69310;SDS011;56430;48.154;16.458;2023-03-01T06:06:21;30.77;;;11.40;;
69310;SDS011;56430;48.154;16.458;2023-03-01T06:08:48;31.77;;;11.90;;
69310;SDS011;56430;48.154;16.458;2023-03-01T06:11:15;33.22;;;11.73;;
69310;SDS011;56430;48.154;16.458;2023-03-01T06:13:42;32.22;;;11.82;;
69310;SDS011;56430;48.154;16.458;2023-03-01T06:16:09;32.40;;;11.80;;
69310;SDS011;56430;48.154;16.458;2023-03-01T06:18:36;38.57;;;12.17;;
69310;SDS011;56430;48.154;16.458;2023-03-01T06:21:03;34.60;;;12.85;;
69310;SDS011;56430;48.154;16.458;2023-03-01T06:23:32;32.58;;;12.13;;
69310;SDS011;56430;48.154;16.458;2023-03-01T06:25:59;28.20;;;10.63;;
69310;SDS011;56430;48.154;16.458;2023-03-01T06:28:25;36.47;;;12.00;;
69310;SDS011;56430;48.154;16.458;2023-03-01T06:30:52;33.27;;;11.83;;
69310;SDS011;56430;48.154;16.458;2023-03-01T06:33:19;37.08;;;13.10;;
69310;SDS011;56430;48.154;16.458;2023-03-01T06:35:48;32.40;;;12.30;;
69310;SDS011;56430;48.154;16.458;2023-03-01T06:38:15;34.28;;;12.10;;
69310;SDS011;56430;48.154;16.458;2023-03-01T06:40:45;32.15;;;12.63;;
69310;SDS011;56430;48.154;16.458;2023-03-01T06:43:17;29.33;;;11.10;;
69310;SDS011;56430;48.154;16.458;2023-03-01T06:45:44;33.92;;;11.43;;
69310;SDS011;56430;48.154;16.458;2023-03-01T06:48:11;33.50;;;12.13;;
69310;SDS011;56430;48.154;16.458;2023-03-01T06:50:38;31.13;;;11.80;;
69310;SDS011;56430;48.154;16.458;2023-03-01T06:53:05;34.17;;;12.38;;
69310;SDS011;56430;48.154;16.458;2023-03-01T06:55:32;33.30;;;12.67;;
69310;SDS011;56430;48.154;16.458;2023-03-01T06:58:01;31.15;;;12.18;;
69310;SDS011;56430;48.154;16.458;2023-03-01T07:00:28;28.73;;;11.57;;
69310;SDS011;56430;48.154;16.458;2023-03-01T07:02:57;33.78;;;12.85;;
69310;SDS011;56430;48.154;16.458;2023-03-01T07:05:24;29.23;;;11.55;;
69310;SDS011;56430;48.154;16.458;2023-03-01T07:07:52;32.67;;;12.83;;
69310;SDS011;56430;48.154;16.458;2023-03-01T07:10:19;31.80;;;11.80;;
69310;SDS011;56430;48.154;16.458;2023-03-01T07:12:46;33.78;;;11.30;;
69310;SDS011;56430;48.154;16.458;2023-03-01T07:15:14;28.10;;;11.30;;
69310;SDS011;56430;48.154;16.458;2023-03-01T07:17:41;30.35;;;11.23;;
69310;SDS011;56430;48.154;16.458;2023-03-01T07:20:10;30.57;;;12.50;;
69310;SDS011;56430;48.154;16.458;2023-03-01T07:22:39;31.80;;;10.88;;
69310;SDS011;56430;48.154;16.458;2023-03-01T07:25:06;29.65;;;11.55;;
69310;SDS011;56430;48.154;16.458;2023-03-01T07:27:33;34.53;;;12.93;;
69310;SDS011;56430;48.154;16.458;2023-03-01T07:30:00;31.27;;;11.68;;
69310;SDS011;56430;48.154;16.458;2023-03-01T07:32:28;32.37;;;12.20;;
69310;SDS011;56430;48.154;16.458;2023-03-01T07:34:55;29.17;;;11.10;;
69310;SDS011;56430;48.154;16.458;2023-03-01T07:37:22;33.20;;;11.50;;
69310;SDS011;56430;48.154;16.458;2023-03-01T07:39:49;34.47;;;12.43;;
69310;SDS011;56430;48.154;16.458;2023-03-01T07:42:16;39.10;;;11.88;;
69310;SDS011;56430;48.154;16.458;2023-03-01T07:44:43;32.13;;;12.03;;
69310;SDS011;56430;48.154;16.458;2023-03-01T07:47:09;35.28;;;12.13;;
69310;SDS011;56430;48.154;16.458;2023-03-01T07:49:38;32.08;;;11.20;;
69310;SDS011;56430;48.154;16.458;2023-03-01T07:52:05;31.30;;;11.80;;
69310;SDS011;56430;48.154;16.458;2023-03-01T07:54:32;34.55;;;13.13;;
69310;SDS011;56430;48.154;16.458;2023-03-01T07:56:59;35.00;;;12.57;;
69310;SDS011;56430;48.154;16.458;2023-03-01T07:59:26;33.00;;;13.32;;
69310;SDS011;56430;48.154;16.458;2023-03-01T08:01:54;30.58;;;12.18;;
69310;SDS011;56430;48.154;16.458;2023-03-01T08:04:21;30.73;;;11.68;;
69310;SDS011;56430;48.154;16.458;2023-03-01T08:06:51;33.15;;;11.88;;
69310;SDS011;56430;48.154;16.458;2023-03-01T08:09:18;33.90;;;12.43;;
69310;SDS011;56430;48.154;16.458;2023-03-01T08:11:45;29.83;;;12.70;;
69310;SDS011;56430;48.154;16.458;2023-03-01T08:14:12;32.38;;;12.45;;
69310;SDS011;56430;48.154;16.458;2023-03-01T08:16:39;32.75;;;12.93;;
69310;SDS011;56430;48.154;16.458;2023-03-01T08:19:06;33.45;;;12.35;;
69310;SDS011;56430;48.154;16.458;2023-03-01T08:21:33;33.13;;;12.90;;
69310;SDS011;56430;48.154;16.458;2023-03-01T08:24:02;35.35;;;13.18;;
69310;SDS011;56430;48.154;16.458;2023-03-01T08:26:30;39.50;;;13.82;;
69310;SDS011;56430;48.154;16.458;2023-03-01T08:28:57;34.13;;;13.35;;
69310;SDS011;56430;48.154;16.458;2023-03-01T08:31:25;36.53;;;14.23;;
69310;SDS011;56430;48.154;16.458;2023-03-01T08:33:53;29.87;;;12.83;;
69310;SDS011;56430;48.154;16.458;2023-03-01T08:36:21;30.77;;;12.73;;
69310;SDS011;56430;48.154;16.458;2023-03-01T08:38:48;33.63;;;13.82;;
69310;SDS011;56430;48.154;16.458;2023-03-01T08:41:17;32.97;;;13.63;;
69310;SDS011;56430;48.154;16.458;2023-03-01T08:43:44;30.88;;;13.13;;
69310;SDS011;56430;48.154;16.458;2023-03-01T08:46:11;29.73;;;12.20;;
69310;SDS011;56430;48.154;16.458;2023-03-01T08:48:38;34.15;;;12.98;;
69310;SDS011;56430;48.154;16.458;2023-03-01T08:51:09;29.67;;;12.77;;
69310;SDS011;56430;48.154;16.458;2023-03-01T08:53:36;35.40;;;13.07;;
69310;SDS011;56430;48.154;16.458;2023-03-01T08:56:03;28.75;;;12.32;;
69310;SDS011;56430;48.154;16.458;2023-03-01T08:58:32;32.17;;;13.23;;
69310;SDS011;56430;48.154;16.458;2023-03-01T09:00:59;28.00;;;12.02;;
69310;SDS011;56430;48.154;16.458;2023-03-01T09:03:26;32.53;;;13.15;;
69310;SDS011;56430;48.154;16.458;2023-03-01T09:05:53;30.20;;;13.57;;
69310;SDS011;56430;48.154;16.458;2023-03-01T09:08:26;27.65;;;13.07;;
69310;SDS011;56430;48.154;16.458;2023-03-01T09:10:53;40.27;;;13.93;;
69310;SDS011;56430;48.154;16.458;2023-03-01T09:13:19;30.75;;;13.48;;
69310;SDS011;56430;48.154;16.458;2023-03-01T09:15:50;33.50;;;13.80;;
69310;SDS011;56430;48.154;16.458;2023-03-01T09:18:17;28.45;;;12.95;;
69310;SDS011;56430;48.154;16.458;2023-03-01T09:20:44;31.88;;;14.32;;
69310;SDS011;56430;48.154;16.458;2023-03-01T09:23:11;32.70;;;13.17;;
69310;SDS011;56430;48.154;16.458;2023-03-01T09:25:38;27.10;;;13.05;;
69310;SDS011;56430;48.154;16.458;2023-03-01T09:28:05;32.28;;;13.30;;
69310;SDS011;56430;48.154;16.458;2023-03-01T09:30:32;28.48;;;12.30;;
69310;SDS011;56430;48.154;16.458;2023-03-01T09:33:00;28.98;;;13.00;;
69310;SDS011;56430;48.154;16.458;2023-03-01T09:35:27;31.37;;;13.27;;
69310;SDS011;56430;48.154;16.458;2023-03-01T09:37:54;31.30;;;13.75;;
69310;SDS011;56430;48.154;16.458;2023-03-01T09:40:22;32.75;;;13.07;;
69310;SDS011;56430;48.154;16.458;2023-03-01T09:42:52;31.38;;;12.70;;
69310;SDS011;56430;48.154;16.458;2023-03-01T09:45:23;35.17;;;14.02;;
69310;SDS011;56430;48.154;16.458;2023-03-01T09:47:51;30.80;;;13.47;;
69310;SDS011;56430;48.154;16.458;2023-03-01T09:50:21;26.08;;;11.80;;
69310;SDS011;56430;48.154;16.458;2023-03-01T09:52:50;26.15;;;11.90;;
69310;SDS011;56430;48.154;16.458;2023-03-01T09:55:20;25.92;;;12.07;;
69310;SDS011;56430;48.154;16.458;2023-03-01T09:57:51;27.45;;;12.05;;
69310;SDS011;56430;48.154;16.458;2023-03-01T10:00:22;26.17;;;12.40;;
69310;SDS011;56430;48.154;16.458;2023-03-01T10:02:54;26.48;;;12.07;;
69310;SDS011;56430;48.154;16.458;2023-03-01T10:08:19;25.02;;;12.30;;
69310;SDS011;56430;48.154;16.458;2023-03-01T10:10:50;25.77;;;12.77;;
69310;SDS011;56430;48.154;16.458;2023-03-01T10:13:19;28.77;;;13.50;;
69310;SDS011;56430;48.154;16.458;2023-03-01T10:15:49;29.20;;;13.00;;
69310;SDS011;56430;48.154;16.458;2023-03-01T10:18:21;27.02;;;13.38;;
69310;SDS011;56430;48.154;16.458;2023-03-01T10:20:51;27.20;;;13.25;;
69310;SDS011;56430;48.154;16.458;2023-03-01T10:23:21;26.17;;;12.88;;
69310;SDS011;56430;48.154;16.458;2023-03-01T10:25:52;26.50;;;11.83;;
69310;SDS011;56430;48.154;16.458;2023-03-01T10:28:25;26.63;;;12.52;;
69310;SDS011;56430;48.154;16.458;2023-03-01T10:30:52;27.77;;;13.15;;
69310;SDS011;56430;48.154;16.458;2023-03-01T10:33:20;29.13;;;12.25;;
69310;SDS011;56430;48.154;16.458;2023-03-01T10:35:48;23.88;;;11.88;;
69310;SDS011;56430;48.154;16.458;2023-03-01T10:38:16;27.10;;;11.47;;
69310;SDS011;56430;48.154;16.458;2023-03-01T10:40:51;23.80;;;12.05;;
69310;SDS011;56430;48.154;16.458;2023-03-01T10:43:18;29.23;;;12.43;;
69310;SDS011;56430;48.154;16.458;2023-03-01T10:45:46;26.48;;;12.00;;
69310;SDS011;56430;48.154;16.458;2023-03-01T10:48:14;25.42;;;11.57;;
69310;SDS011;56430;48.154;16.458;2023-03-01T10:50:41;27.90;;;11.87;;
69310;SDS011;56430;48.154;16.458;2023-03-01T10:56:03;25.30;;;11.98;;
69310;SDS011;56430;48.154;16.458;2023-03-01T10:58:31;22.95;;;11.45;;
69310;SDS011;56430;48.154;16.458;2023-03-01T11:00:58;19.58;;;10.27;;
69310;SDS011;56430;48.154;16.458;2023-03-01T11:03:27;18.90;;;10.70;;
69310;SDS011;56430;48.154;16.458;2023-03-01T11:05:59;20.77;;;11.07;;
69310;SDS011;56430;48.154;16.458;2023-03-01T11:08:30;19.80;;;10.23;;
69310;SDS011;56430;48.154;16.458;2023-03-01T11:11:05;21.15;;;11.18;;
69310;SDS011;56430;48.154;16.458;2023-03-01T11:13:33;20.42;;;10.32;;
69310;SDS011;56430;48.154;16.458;2023-03-01T11:16:03;19.47;;;10.70;;
69310;SDS011;56430;48.154;16.458;2023-03-01T11:18:32;19.05;;;9.65;;
69310;SDS011;56430;48.154;16.458;2023-03-01T11:20:59;21.17;;;9.80;;
69310;SDS011;56430;48.154;16.458;2023-03-01T11:23:27;17.00;;;9.30;;
69310;SDS011;56430;48.154;16.458;2023-03-01T11:25:56;19.50;;;9.57;;
69310;SDS011;56430;48.154;16.458;2023-03-01T11:28:24;19.80;;;9.73;;
69310;SDS011;56430;48.154;16.458;2023-03-01T11:30:54;15.70;;;8.30;;
69310;SDS011;56430;48.154;16.458;2023-03-01T11:33:24;15.65;;;8.45;;
69310;SDS011;56430;48.154;16.458;2023-03-01T11:35:55;17.50;;;8.90;;
69310;SDS011;56430;48.154;16.458;2023-03-01T11:38:24;16.15;;;9.02;;
69310;SDS011;56430;48.154;16.458;2023-03-01T11:40:53;18.37;;;9.00;;
69310;SDS011;56430;48.154;16.458;2023-03-01T11:43:28;19.27;;;9.57;;
69310;SDS011;56430;48.154;16.458;2023-03-01T11:46:18;16.83;;;9.05;;
69310;SDS011;56430;48.154;16.458;2023-03-01T11:48:51;21.38;;;9.43;;
69310;SDS011;56430;48.154;16.458;2023-03-01T11:51:21;18.13;;;9.60;;
69310;SDS011;56430;48.154;16.458;2023-03-01T11:53:59;19.67;;;9.30;;
69310;SDS011;56430;48.154;16.458;2023-03-01T11:56:29;18.92;;;9.13;;
69310;SDS011;56430;48.154;16.458;2023-03-01T11:59:06;27.33;;;10.48;;
69310;SDS011;56430;48.154;16.458;2023-03-01T12:01:44;21.60;;;10.02;;
69310;SDS011;56430;48.154;16.458;2023-03-01T12:04:19;18.77;;;9.15;;
69310;SDS011;56430;48.154;16.458;2023-03-01T12:06:50;19.70;;;9.77;;
69310;SDS011;56430;48.154;16.458;2023-03-01T12:09:25;20.20;;;9.27;;
69310;SDS011;56430;48.154;16.458;2023-03-01T12:12:08;16.95;;;9.10;;
69310;SDS011;56430;48.154;16.458;2023-03-01T12:17:31;17.70;;;9.07;;
69310;SDS011;56430;48.154;16.458;2023-03-01T12:20:08;22.97;;;9.70;;
69310;SDS011;56430;48.154;16.458;2023-03-01T12:22:43;21.52;;;9.63;;
69310;SDS011;56430;48.154;16.458;2023-03-01T12:25:16;17.73;;;8.88;;
69310;SDS011;56430;48.154;16.458;2023-03-01T12:27:55;24.02;;;10.13;;
69310;SDS011;56430;48.154;16.458;2023-03-01T12:30:27;20.90;;;9.15;;
69310;SDS011;56430;48.154;16.458;2023-03-01T12:33:02;18.83;;;8.70;;
69310;SDS011;56430;48.154;16.458;2023-03-01T12:35:34;18.95;;;9.00;;
69310;SDS011;56430;48.154;16.458;2023-03-01T12:38:08;19.40;;;8.88;;
69310;SDS011;56430;48.154;16.458;2023-03-01T12:40:45;21.50;;;9.32;;
69310;SDS011;56430;48.154;16.458;2023-03-01T12:43:19;21.60;;;10.30;;
69310;SDS011;56430;48.154;16.458;2023-03-01T12:45:50;18.67;;;9.43;;
69310;SDS011;56430;48.154;16.458;2023-03-01T12:48:30;20.75;;;9.90;;
69310;SDS011;56430;48.154;16.458;2023-03-01T12:50:59;17.50;;;8.90;;
69310;SDS011;56430;48.154;16.458;2023-03-01T12:53:28;22.42;;;10.10;;
69310;SDS011;56430;48.154;16.458;2023-03-01T12:55:56;20.10;;;8.98;;
69310;SDS011;56430;48.154;16.458;2023-03-01T12:58:27;19.63;;;8.73;;
69310;SDS011;56430;48.154;16.458;2023-03-01T13:01:09;20.55;;;8.60;;
69310;SDS011;56430;48.154;16.458;2023-03-01T13:03:52;20.92;;;9.65;;
69310;SDS011;56430;48.154;16.458;2023-03-01T13:06:25;24.15;;;9.68;;
69310;SDS011;56430;48.154;16.458;2023-03-01T13:08:57;20.23;;;9.25;;
69310;SDS011;56430;48.154;16.458;2023-03-01T13:11:26;16.80;;;8.80;;
69310;SDS011;56430;48.154;16.458;2023-03-01T13:13:55;21.77;;;8.88;;
69310;SDS011;56430;48.154;16.458;2023-03-01T13:16:42;22.65;;;10.45;;
69310;SDS011;56430;48.154;16.458;2023-03-01T13:19:14;19.92;;;9.05;;
69310;SDS011;56430;48.154;16.458;2023-03-01T13:21:42;19.83;;;9.38;;
69310;SDS011;56430;48.154;16.458;2023-03-01T13:24:29;18.57;;;8.90;;
69310;SDS011;56430;48.154;16.458;2023-03-01T13:27:10;18.40;;;8.88;;
69310;SDS011;56430;48.154;16.458;2023-03-01T13:29:43;19.95;;;8.40;;
69310;SDS011;56430;48.154;16.458;2023-03-01T13:32:18;18.92;;;8.93;;
69310;SDS011;56430;48.154;16.458;2023-03-01T13:34:48;18.13;;;8.25;;
69310;SDS011;56430;48.154;16.458;2023-03-01T13:37:18;16.43;;;7.43;;
69310;SDS011;56430;48.154;16.458;2023-03-01T13:39:45;21.58;;;8.90;;
69310;SDS011;56430;48.154;16.458;2023-03-01T13:44:57;24.80;;;8.60;;
69310;SDS011;56430;48.154;16.458;2023-03-01T13:47:24;20.27;;;8.35;;
69310;SDS011;56430;48.154;16.458;2023-03-01T13:49:53;18.60;;;8.23;;
69310;SDS011;56430;48.154;16.458;2023-03-01T13:52:30;22.33;;;8.80;;
69310;SDS011;56430;48.154;16.458;2023-03-01T13:54:58;16.98;;;8.18;;
69310;SDS011;56430;48.154;16.458;2023-03-01T13:57:28;19.63;;;8.00;;
69310;SDS011;56430;48.154;16.458;2023-03-01T13:59:59;16.23;;;7.72;;
69310;SDS011;56430;48.154;16.458;2023-03-01T14:02:26;16.83;;;7.17;;
69310;SDS011;56430;48.154;16.458;2023-03-01T14:04:57;15.88;;;7.32;;
69310;SDS011;56430;48.154;16.458;2023-03-01T14:07:25;15.20;;;7.57;;
69310;SDS011;56430;48.154;16.458;2023-03-01T14:09:55;16.33;;;7.45;;
69310;SDS011;56430;48.154;16.458;2023-03-01T14:12:25;20.08;;;8.80;;
69310;SDS011;56430;48.154;16.458;2023-03-01T14:14:56;16.73;;;7.97;;
69310;SDS011;56430;48.154;16.458;2023-03-01T14:17:32;18.40;;;8.40;;
69310;SDS011;56430;48.154;16.458;2023-03-01T14:20:07;18.52;;;9.02;;
69310;SDS011;56430;48.154;16.458;2023-03-01T14:22:35;18.98;;;8.95;;
69310;SDS011;56430;48.154;16.458;2023-03-01T14:25:05;15.57;;;8.02;;
69310;SDS011;56430;48.154;16.458;2023-03-01T14:27:33;17.20;;;8.23;;
69310;SDS011;56430;48.154;16.458;2023-03-01T14:30:02;16.98;;;8.27;;
69310;SDS011;56430;48.154;16.458;2023-03-01T14:32:30;15.80;;;8.18;;
69310;SDS011;56430;48.154;16.458;2023-03-01T14:34:58;17.75;;;8.93;;
69310;SDS011;56430;48.154;16.458;2023-03-01T14:37:27;20.48;;;9.73;;